Aérodrome :
LOGIN :

S'inscrire | Disclaimer

   EN    FR    IT 

 










Légende :    VFR   VFR Marginal   IFR   IFR Intensif   IFR Très Intensif
Visi : 
Plafond : 
>= 8 km
>= 3000ft
5 à 8 km
1000 à 3000 ft
1500m à 5 km
500 à 1000 ft
800 à 1500m
200 à 500 ft
< 800m
< 200 ft
Symboles :   Orages  Brouillard  Fortes neiges  Fortes précipitations  Vent > 20 kt
SIGMETs :   Divers  Orages  Givrage  Turbulence  Onde Orograph.  Cendres Volcan.







- Altitude de l'aérodrome : 277 ft
- Code IATA : JER
- Voir les cartes d'approche


EGJJ - Jersey

DERNIER METAR :
  • 280720Z 26008KT 9999 -SHRA FEW007 BKN012CB 04/03 Q0989 TEMPO 5000 SHRA

METARs EXPIRÉS :
  • 280650Z 24010KT 9999 -SHRA FEW007 SCT014CB BKN025 03/03 Q0989 RESHRA TEMPO 5000 SHRAGS BKN012CB
  • 280620Z 25020KT 7000 SHRA FEW007 SCT012CB BKN020 04/03 Q0988 TEMPO 3000 SHRAGS BKN012CB
  • 280550Z 27011KT 7000 -SHRA FEW007 SCT012CB BKN020 03/03 Q0989 RESHRA RESHGS TEMPO 3000 SHRAGS BKN012CB
  • 280520Z 29016KT 250V310 5000 -SHRA FEW008 SCT012CB BKN014 04/03 Q0988 TEMPO SHRAGS BKN012CB
  • 280450Z 26025KT 9999 -SHRA FEW012CB BKN014 05/04 Q0988 TEMPO 5000 SHRAGS BKN012CB

TAF TAF EGJJ
Valide du 28 à 06h jusqu'au 28 à 15h UTC


280504Z 2806/2815 25022G32KT 9999 FEW006 SCT015CB
TEMPO 2806/2809 25032G50KT
TEMPO 2806/2815 5000 SHRAGS BKN012CB
PROB30
TEMPO 2806/2815 3000 +TSRAGS BKN010CB
BECMG 2807/2809 30018G30KT
ATIS : +44 1534 498 073
Pas de NOTAMs connus pour ce terrain.
3 SIGMETs publiés pour la FIR Brest (LFRR) :
 
Turbulence forte
LFRR SIGMET 4 VALID 280800/281200 LFPW
LFRR BREST FIR/UIR SEV TURB FCST WI N4715 W00015 - N4630 W00015 - N4630 W00130 - N4330 W00145 - N4500 W00800 - N4900 W00800 SFC/FL080 STNR NC=
Turbulence forte
LFRR SIGMET 3 VALID 280600/281000 LFPW
LFRR BREST FIR/UIR SEV TURB FCST WI N4630 W00800 - N4800 W00800 - N4715 W00330 - N4530 W00330 FL160/280 STNR NC=
Turbulence forte
LFRR SIGMET 2 VALID 280400/280800 LFPW
LFRR BREST FIR/UIR SEV TURB FCST WI N4630 W00045 - N4630 W00130 - N4330 W00145 - N4500 W00800 - N4830 W00800 - N4830 W00445 SFC/FL060 STNR NC=



MET'MAP, la Météo Aéronautique d'un coup d'oeil ! - Copyright ORBIFLY Décembre 2007 - Disclaimer

ORBIFLY MET'MAP TEAM :

Programmation & Développement : Alexandra Zaïnal
Conception & Développement : Baudouin d'Aumeries
Co-Programmation & Développement : Marc-Olivier Méhu
Soutien technique & logistique : Manuel Goepfert

Contact : metmap@orbifly.com




SOURCES & CREDITS :

   NOAA